createdAt,value
2018-12-04T00:00:00.528Z,990.3
2018-12-04T00:01:02.566Z,990.3
2018-12-04T00:02:06.122Z,990.3
2018-12-04T00:03:08.451Z,990.4
2018-12-04T00:04:10.507Z,990.3
2018-12-04T00:05:12.825Z,990.4
2018-12-04T00:06:14.862Z,990.4
2018-12-04T00:07:16.927Z,990.3
2018-12-04T00:08:18.954Z,990.5
2018-12-04T00:09:21.000Z,990.5
2018-12-04T00:10:23.417Z,990.5
2018-12-04T00:11:25.750Z,990.5
2018-12-04T00:12:27.776Z,990.6
2018-12-04T00:13:29.822Z,990.7
2018-12-04T00:14:31.858Z,990.6
2018-12-04T00:15:34.271Z,990.6
2018-12-04T00:16:36.987Z,990.6
2018-12-04T00:17:40.526Z,990.6
2018-12-04T00:18:42.968Z,990.6
2018-12-04T00:19:45.383Z,990.6
2018-12-04T00:20:47.418Z,990.6
2018-12-04T00:21:49.440Z,990.6
2018-12-04T00:22:51.474Z,990.6
2018-12-04T00:23:53.802Z,990.7
2018-12-04T00:24:55.865Z,990.6
2018-12-04T00:25:57.968Z,990.6
2018-12-04T00:27:00.151Z,990.6
2018-12-04T00:28:02.272Z,990.6
2018-12-04T00:29:04.690Z,990.6
2018-12-04T00:30:06.843Z,990.7
2018-12-04T00:31:08.979Z,990.7
2018-12-04T00:32:11.125Z,990.7
2018-12-04T00:33:13.293Z,990.7
2018-12-04T00:34:15.422Z,990.7
2018-12-04T00:35:17.537Z,990.8
2018-12-04T00:36:19.725Z,990.8
2018-12-04T00:37:21.851Z,990.8
2018-12-04T00:38:23.997Z,990.8
2018-12-04T00:39:26.138Z,990.8
2018-12-04T00:40:28.656Z,990.8
2018-12-04T00:41:30.815Z,990.9
2018-12-04T00:42:32.929Z,990.8
2018-12-04T00:43:35.347Z,990.9
2018-12-04T00:44:37.476Z,990.8
2018-12-04T00:45:39.617Z,990.9
2018-12-04T00:46:41.737Z,990.9
2018-12-04T00:47:43.873Z,990.9
2018-12-04T00:48:45.997Z,991
2018-12-04T00:49:48.136Z,991
2018-12-04T00:50:50.275Z,991
2018-12-04T00:51:52.390Z,991
2018-12-04T00:52:54.568Z,991.1
2018-12-04T00:53:56.729Z,991.1
2018-12-04T00:54:58.902Z,991.2
2018-12-04T00:56:01.035Z,991.1
2018-12-04T00:57:03.559Z,991.1
2018-12-04T00:58:05.690Z,991.1
2018-12-04T00:59:07.814Z,991.2
2018-12-04T01:00:10.268Z,991.1
2018-12-04T01:01:12.464Z,991.2
2018-12-04T01:02:14.590Z,991.2
2018-12-04T01:03:17.056Z,991.2
2018-12-04T01:04:19.192Z,991.3
2018-12-04T01:05:21.337Z,991.3
2018-12-04T01:06:23.764Z,991.4
2018-12-04T01:07:25.888Z,991.4
2018-12-04T01:08:28.037Z,991.4
2018-12-04T01:09:30.176Z,991.4
2018-12-04T01:10:32.308Z,991.4
2018-12-04T01:11:34.459Z,991.5
2018-12-04T01:12:36.588Z,991.5
2018-12-04T01:13:38.992Z,991.6
2018-12-04T01:14:41.119Z,991.6
2018-12-04T01:15:43.564Z,991.6
2018-12-04T01:16:46.258Z,991.7
2018-12-04T01:17:48.389Z,991.7
2018-12-04T01:18:51.175Z,991.6
2018-12-04T01:19:53.629Z,991.7
2018-12-04T01:20:55.756Z,991.7
2018-12-04T01:21:57.875Z,991.8
2018-12-04T01:23:00.304Z,991.8
2018-12-04T01:24:02.417Z,991.8
2018-12-04T01:25:04.550Z,991.9
2018-12-04T01:26:06.712Z,991.9
2018-12-04T01:27:08.848Z,991.9
2018-12-04T01:28:10.953Z,991.9
2018-12-04T01:29:13.096Z,991.9
2018-12-04T01:30:15.214Z,991.9
2018-12-04T01:31:17.333Z,991.9
2018-12-04T01:32:19.476Z,991.9
2018-12-04T01:33:21.879Z,991.9
2018-12-04T01:34:24.387Z,991.8
2018-12-04T01:35:26.519Z,991.9
2018-12-04T01:36:28.637Z,992
2018-12-04T01:37:30.758Z,992
2018-12-04T01:38:32.886Z,992.1
2018-12-04T01:39:35.001Z,992.1
2018-12-04T01:40:37.126Z,992.2
2018-12-04T01:41:39.258Z,992.2
2018-12-04T01:42:41.771Z,992.2
2018-12-04T01:43:43.890Z,992.3
2018-12-04T01:44:46.027Z,992.3
2018-12-04T01:45:48.534Z,992.3
2018-12-04T01:46:50.640Z,992.3
2018-12-04T01:47:52.768Z,992.4
2018-12-04T01:48:54.870Z,992.4
2018-12-04T01:49:56.993Z,992.4
2018-12-04T01:50:59.398Z,992.4
2018-12-04T01:52:01.587Z,992.4
2018-12-04T01:53:03.715Z,992.5
2018-12-04T01:54:06.148Z,992.5
2018-12-04T01:55:08.662Z,992.5
2018-12-04T01:56:11.397Z,992.5
2018-12-04T01:57:13.500Z,992.5
2018-12-04T01:58:15.630Z,992.5
2018-12-04T01:59:17.745Z,992.6
2018-12-04T02:00:19.874Z,992.5
2018-12-04T02:01:21.972Z,992.6
2018-12-04T02:02:24.097Z,992.6
2018-12-04T02:03:26.221Z,992.7
2018-12-04T02:04:28.335Z,992.7
2018-12-04T02:05:31.033Z,992.7
2018-12-04T02:06:33.422Z,992.8
2018-12-04T02:07:35.546Z,992.7
2018-12-04T02:08:37.681Z,992.7
2018-12-04T02:09:39.809Z,992.8
2018-12-04T02:10:41.919Z,992.8
2018-12-04T02:11:44.049Z,992.9
2018-12-04T02:12:46.179Z,992.9
2018-12-04T02:13:48.587Z,992.9
2018-12-04T02:14:50.716Z,992.9
2018-12-04T02:15:52.838Z,992.9
2018-12-04T02:16:55.244Z,992.9
2018-12-04T02:17:57.411Z,992.9
2018-12-04T02:18:59.529Z,993
2018-12-04T02:20:02.039Z,993
2018-12-04T02:21:05.597Z,993
2018-12-04T02:22:07.709Z,993
2018-12-04T02:23:09.838Z,993
2018-12-04T02:24:11.956Z,993
2018-12-04T02:25:14.096Z,993.1
2018-12-04T02:26:16.209Z,993.1
2018-12-04T02:27:18.333Z,993.1
2018-12-04T02:28:20.454Z,993.1
2018-12-04T02:29:22.555Z,993.2
2018-12-04T02:30:24.687Z,993.2
2018-12-04T02:31:26.833Z,993.2
2018-12-04T02:32:28.961Z,993.2
2018-12-04T02:33:31.151Z,993.3
2018-12-04T02:34:33.259Z,993.3
2018-12-04T02:35:35.396Z,993.3
2018-12-04T02:36:37.542Z,993.3
2018-12-04T02:37:39.660Z,993.4
2018-12-04T02:38:42.277Z,993.4
2018-12-04T02:39:44.682Z,993.5
2018-12-04T02:40:46.810Z,993.5
2018-12-04T02:41:48.949Z,993.5
2018-12-04T02:42:51.075Z,993.5
2018-12-04T02:43:53.192Z,993.5
2018-12-04T02:44:55.606Z,993.5
2018-12-04T02:45:58.119Z,993.5
2018-12-04T02:47:00.549Z,993.5
2018-12-04T02:48:02.713Z,993.6
2018-12-04T02:49:05.116Z,993.6
2018-12-04T02:50:07.621Z,993.6
2018-12-04T02:51:09.765Z,993.7
2018-12-04T02:52:11.905Z,993.5
2018-12-04T02:53:14.319Z,993.7
2018-12-04T02:54:16.749Z,993.8
2018-12-04T02:55:18.846Z,993.8
2018-12-04T02:56:21.269Z,993.8
2018-12-04T02:57:23.390Z,993.8
2018-12-04T02:58:25.802Z,993.8
2018-12-04T02:59:28.293Z,993.9
2018-12-04T03:00:30.814Z,993.9
2018-12-04T03:01:32.931Z,993.9
2018-12-04T03:02:35.052Z,993.9
2018-12-04T03:03:37.188Z,993.9
2018-12-04T03:04:39.306Z,994
2018-12-04T03:05:42.010Z,994
2018-12-04T03:06:44.132Z,994.1
2018-12-04T03:07:46.276Z,994.1
2018-12-04T03:08:48.404Z,994.1
2018-12-04T03:09:50.522Z,994.2
2018-12-04T03:10:52.640Z,994.1
2018-12-04T03:11:54.779Z,994.2
2018-12-04T03:12:56.895Z,994.2
2018-12-04T03:13:59.022Z,994.2
2018-12-04T03:15:01.155Z,994.2
2018-12-04T03:16:03.306Z,994.3
2018-12-04T03:17:05.421Z,994.2
2018-12-04T03:18:07.597Z,994.3
2018-12-04T03:19:09.710Z,994.4
2018-12-04T03:20:11.838Z,994.4
2018-12-04T03:21:13.970Z,994.5
2018-12-04T03:22:16.096Z,994.5
2018-12-04T03:23:18.227Z,994.5
2018-12-04T03:24:20.363Z,994.5
2018-12-04T03:25:23.364Z,994.5
2018-12-04T03:26:25.870Z,994.6
2018-12-04T03:27:28.005Z,994.6
2018-12-04T03:28:30.101Z,994.6
2018-12-04T03:29:32.513Z,994.6
2018-12-04T03:30:35.202Z,994.6
2018-12-04T03:31:37.370Z,994.7
2018-12-04T03:32:39.511Z,994.7
2018-12-04T03:33:42.451Z,994.7
2018-12-04T03:34:44.597Z,994.8
2018-12-04T03:35:46.987Z,994.8
2018-12-04T03:36:49.133Z,994.8
2018-12-04T03:37:51.938Z,994.8
2018-12-04T03:38:54.059Z,994.9
2018-12-04T03:39:56.185Z,994.9
2018-12-04T03:40:58.315Z,995
2018-12-04T03:42:00.712Z,995
2018-12-04T03:43:02.843Z,995
2018-12-04T03:44:05.023Z,995.1
2018-12-04T03:45:07.135Z,995.1
2018-12-04T03:46:09.954Z,995.1
2018-12-04T03:47:12.126Z,995.1
2018-12-04T03:48:14.233Z,995.2
2018-12-04T03:49:16.357Z,995.2
2018-12-04T03:50:18.486Z,995.2
2018-12-04T03:51:20.599Z,995.2
2018-12-04T03:52:22.729Z,995.2
2018-12-04T03:53:24.857Z,995.2
2018-12-04T03:54:27.353Z,995.2
2018-12-04T03:55:29.764Z,995.3
2018-12-04T03:56:31.912Z,995.3
2018-12-04T03:57:34.015Z,995.2
2018-12-04T03:58:36.156Z,995.2
2018-12-04T03:59:39.255Z,995.4
2018-12-04T04:00:41.646Z,995.3
2018-12-04T04:01:43.784Z,995.4
2018-12-04T04:02:46.303Z,995.4
2018-12-04T04:03:48.426Z,995.5
2018-12-04T04:04:50.544Z,995.5
2018-12-04T04:05:52.686Z,995.5
2018-12-04T04:06:55.093Z,995.5
2018-12-04T04:07:57.503Z,995.5
2018-12-04T04:08:59.631Z,995.7
2018-12-04T04:10:01.745Z,995.6
2018-12-04T04:11:03.874Z,995.7
2018-12-04T04:12:06.288Z,995.6
2018-12-04T04:13:08.427Z,995.7
2018-12-04T04:14:11.249Z,995.8
2018-12-04T04:15:13.707Z,995.8
2018-12-04T04:16:15.831Z,995.8
2018-12-04T04:17:17.955Z,995.8
2018-12-04T04:18:20.092Z,995.8
2018-12-04T04:19:22.230Z,995.9
2018-12-04T04:20:24.368Z,995.9
2018-12-04T04:21:26.505Z,995.9
2018-12-04T04:22:28.648Z,995.9
2018-12-04T04:23:30.754Z,995.9
2018-12-04T04:24:33.176Z,996
2018-12-04T04:25:35.316Z,996
2018-12-04T04:26:37.433Z,996
2018-12-04T04:27:39.933Z,996
2018-12-04T04:28:42.056Z,996
2018-12-04T04:29:44.189Z,996.2
2018-12-04T04:30:46.978Z,996.2
2018-12-04T04:31:49.109Z,996.1
2018-12-04T04:32:51.628Z,996.1
2018-12-04T04:33:54.127Z,996.2
2018-12-04T04:34:56.289Z,996.2
2018-12-04T04:35:58.415Z,996.2
2018-12-04T04:37:00.815Z,996.2
2018-12-04T04:38:02.924Z,996.3
2018-12-04T04:39:05.631Z,996.3
2018-12-04T04:40:07.747Z,996.3
2018-12-04T04:41:09.875Z,996.3
2018-12-04T04:42:12.907Z,996.4
2018-12-04T04:43:15.023Z,996.4
2018-12-04T04:44:17.490Z,996.5
2018-12-04T04:45:19.616Z,996.5
2018-12-04T04:46:21.748Z,996.5
2018-12-04T04:47:23.884Z,996.5
2018-12-04T04:48:26.044Z,996.5
2018-12-04T04:49:28.184Z,996.5
2018-12-04T04:50:30.308Z,996.5
2018-12-04T04:51:32.447Z,996.6
2018-12-04T04:52:34.939Z,996.6
2018-12-04T04:53:37.064Z,996.6
2018-12-04T04:54:39.216Z,996.6
2018-12-04T04:55:41.358Z,996.8
2018-12-04T04:56:43.874Z,996.8
2018-12-04T04:57:46.286Z,996.8
2018-12-04T04:58:48.409Z,996.8
2018-12-04T04:59:50.530Z,996.9
2018-12-04T05:00:52.991Z,996.9
2018-12-04T05:01:55.121Z,996.9
2018-12-04T05:02:57.837Z,996.9
2018-12-04T05:04:00.623Z,997
2018-12-04T05:05:03.439Z,997
2018-12-04T05:06:05.575Z,997
2018-12-04T05:07:07.697Z,997
2018-12-04T05:08:09.843Z,997.1
2018-12-04T05:09:11.975Z,997.2
2018-12-04T05:10:14.104Z,997.1
2018-12-04T05:11:16.215Z,997.2
2018-12-04T05:12:18.378Z,997.2
2018-12-04T05:13:20.808Z,997.1
2018-12-04T05:14:23.226Z,997.2
2018-12-04T05:15:25.384Z,997.2
2018-12-04T05:16:27.509Z,997.2
2018-12-04T05:17:29.934Z,997.2
2018-12-04T05:18:32.069Z,997.2
2018-12-04T05:19:34.485Z,997.2
2018-12-04T05:20:36.591Z,997.2
2018-12-04T05:21:38.711Z,997.2
2018-12-04T05:22:41.118Z,997.2
2018-12-04T05:23:43.228Z,997.3
2018-12-04T05:24:45.369Z,997.2
2018-12-04T05:25:47.916Z,997.2
2018-12-04T05:26:50.037Z,997.2
2018-12-04T05:27:52.162Z,997.3
2018-12-04T05:28:54.671Z,997.3
2018-12-04T05:29:56.785Z,997.3
2018-12-04T05:30:58.921Z,997.4
2018-12-04T05:32:01.027Z,997.3
2018-12-04T05:33:03.149Z,997.4
2018-12-04T05:34:05.957Z,997.4
2018-12-04T05:35:08.652Z,997.4
2018-12-04T05:36:10.767Z,997.4
2018-12-04T05:37:12.908Z,997.5
2018-12-04T05:38:15.056Z,997.4
2018-12-04T05:39:17.171Z,997.5
2018-12-04T05:40:20.607Z,997.6
2018-12-04T05:41:22.752Z,997.5
2018-12-04T05:42:24.885Z,997.6
2018-12-04T05:43:27.323Z,997.7
2018-12-04T05:44:29.427Z,997.7
2018-12-04T05:45:31.578Z,997.7
2018-12-04T05:46:33.690Z,997.7
2018-12-04T05:47:36.097Z,997.7
2018-12-04T05:48:38.239Z,997.7
2018-12-04T05:49:40.363Z,997.7
2018-12-04T05:50:42.498Z,997.8
2018-12-04T05:51:44.629Z,997.8
2018-12-04T05:52:46.754Z,997.8
2018-12-04T05:53:48.900Z,997.8
2018-12-04T05:54:51.032Z,997.8
2018-12-04T05:55:53.158Z,997.8
2018-12-04T05:56:55.284Z,997.8
2018-12-04T05:57:57.430Z,997.8
2018-12-04T05:58:59.543Z,997.9
2018-12-04T06:00:02.061Z,997.8
2018-12-04T06:01:04.254Z,998
2018-12-04T06:02:06.375Z,998
2018-12-04T06:03:08.478Z,998
2018-12-04T06:04:10.602Z,998.1
2018-12-04T06:05:12.702Z,998.1
2018-12-04T06:06:15.154Z,998.1
2018-12-04T06:07:17.282Z,998.2
2018-12-04T06:08:19.398Z,998.1
2018-12-04T06:09:21.888Z,998.1
2018-12-04T06:10:24.414Z,998.2
2018-12-04T06:11:26.530Z,998.2
2018-12-04T06:12:28.637Z,998.2
2018-12-04T06:13:31.059Z,998.2
2018-12-04T06:14:33.158Z,998.3
2018-12-04T06:15:35.282Z,998.3
2018-12-04T06:16:37.404Z,998.3
2018-12-04T06:17:39.811Z,998.3
2018-12-04T06:18:41.916Z,998.4
2018-12-04T06:19:44.086Z,998.4
2018-12-04T06:20:46.489Z,998.3
2018-12-04T06:21:48.868Z,998.5
2018-12-04T06:22:50.999Z,998.5
2018-12-04T06:23:53.487Z,998.5
2018-12-04T06:24:55.603Z,998.6
2018-12-04T06:25:57.711Z,998.5
2018-12-04T06:26:59.863Z,998.6
2018-12-04T06:28:02.253Z,998.6
2018-12-04T06:29:04.381Z,998.6
2018-12-04T06:30:06.519Z,998.6
2018-12-04T06:31:08.625Z,998.7
2018-12-04T06:32:10.751Z,998.7
2018-12-04T06:33:12.862Z,998.7
2018-12-04T06:34:14.973Z,998.8
2018-12-04T06:35:17.098Z,998.8
2018-12-04T06:36:19.233Z,998.7
2018-12-04T06:37:21.357Z,998.8
2018-12-04T06:38:23.494Z,998.8
2018-12-04T06:39:25.902Z,998.8
2018-12-04T06:40:28.025Z,998.9
2018-12-04T06:41:30.142Z,998.9
2018-12-04T06:42:32.261Z,998.8
2018-12-04T06:43:34.358Z,998.8
2018-12-04T06:44:36.491Z,998.9
2018-12-04T06:45:38.609Z,998.9
2018-12-04T06:46:40.714Z,999
2018-12-04T06:47:42.842Z,999
2018-12-04T06:48:44.953Z,999
2018-12-04T06:49:47.078Z,999
2018-12-04T06:50:49.189Z,999.1
2018-12-04T06:51:51.343Z,999.1
2018-12-04T06:52:53.459Z,999.1
2018-12-04T06:53:55.583Z,999.1
2018-12-04T06:54:57.719Z,999.2
2018-12-04T06:55:59.851Z,999.2
2018-12-04T06:57:01.967Z,999.2
2018-12-04T06:58:04.088Z,999.3
2018-12-04T06:59:06.202Z,999.4
2018-12-04T07:00:08.354Z,999.4
2018-12-04T07:01:10.474Z,999.4
2018-12-04T07:02:12.872Z,999.4
2018-12-04T07:03:14.995Z,999.5
2018-12-04T07:04:17.105Z,999.5
2018-12-04T07:05:19.232Z,999.5
2018-12-04T07:06:21.371Z,999.5
2018-12-04T07:07:23.774Z,999.6
2018-12-04T07:08:25.891Z,999.7
2018-12-04T07:09:28.022Z,999.7
2018-12-04T07:10:30.136Z,999.7
2018-12-04T07:11:32.554Z,999.8
2018-12-04T07:12:34.667Z,999.8
2018-12-04T07:13:36.776Z,999.8
2018-12-04T07:14:39.565Z,999.8
2018-12-04T07:15:41.698Z,999.8
2018-12-04T07:16:43.830Z,999.9
2018-12-04T07:17:45.955Z,999.9
2018-12-04T07:18:48.085Z,1000
2018-12-04T07:19:50.188Z,1000
2018-12-04T07:20:52.317Z,1000
2018-12-04T07:21:54.430Z,1000
2018-12-04T07:22:57.684Z,1000
2018-12-04T07:23:59.798Z,1000.1
2018-12-04T07:25:02.236Z,1000.1
2018-12-04T07:26:04.346Z,1000.1
2018-12-04T07:27:06.462Z,1000.2
2018-12-04T07:28:08.595Z,1000.2
2018-12-04T07:29:10.698Z,1000.3
2018-12-04T07:30:12.829Z,1000.3
2018-12-04T07:31:14.946Z,1000.4
2018-12-04T07:32:17.071Z,1000.4
2018-12-04T07:33:19.173Z,1000.4
2018-12-04T07:34:21.988Z,1000.4
2018-12-04T07:35:24.125Z,1000.5
2018-12-04T07:36:26.245Z,1000.6
2018-12-04T07:37:28.347Z,1000.6
2018-12-04T07:38:30.477Z,1000.6
2018-12-04T07:39:32.609Z,1000.6
2018-12-04T07:40:34.729Z,1000.6
2018-12-04T07:41:37.270Z,1000.7
2018-12-04T07:42:39.408Z,1000.6
2018-12-04T07:43:41.577Z,1000.7
2018-12-04T07:44:43.983Z,1000.7
2018-12-04T07:45:46.092Z,1000.8
2018-12-04T07:46:49.607Z,1000.8
2018-12-04T07:47:51.716Z,1000.7
2018-12-04T07:48:53.842Z,1000.7
2018-12-04T07:49:55.952Z,1000.8
2018-12-04T07:50:58.080Z,1000.7
2018-12-04T07:52:00.204Z,1000.8
2018-12-04T07:53:02.315Z,1000.8
2018-12-04T07:54:04.457Z,1000.8
2018-12-04T07:55:06.567Z,1000.9
2018-12-04T07:56:08.689Z,1000.9
2018-12-04T07:57:10.808Z,1001
2018-12-04T07:58:12.940Z,1000.9
2018-12-04T07:59:15.330Z,1001
2018-12-04T08:00:17.445Z,1001.1
2018-12-04T08:01:19.855Z,1001
2018-12-04T08:02:21.952Z,1001
2018-12-04T08:03:24.094Z,1001.1
2018-12-04T08:04:27.478Z,1001.1
2018-12-04T08:05:29.602Z,1001.1
2018-12-04T08:06:31.713Z,1001.1
2018-12-04T08:07:33.853Z,1001.2
2018-12-04T08:08:35.979Z,1001.2
2018-12-04T08:09:38.091Z,1001.2
2018-12-04T08:10:40.242Z,1001.2
2018-12-04T08:11:42.352Z,1001.2
2018-12-04T08:12:44.471Z,1001.3
2018-12-04T08:13:46.588Z,1001.4
2018-12-04T08:14:48.707Z,1001.3
2018-12-04T08:15:50.831Z,1001.4
2018-12-04T08:16:52.946Z,1001.3
2018-12-04T08:17:55.070Z,1001.3
2018-12-04T08:18:57.467Z,1001.4
2018-12-04T08:19:59.574Z,1001.5
2018-12-04T08:21:01.687Z,1001.4
2018-12-04T08:22:04.106Z,1001.4
2018-12-04T08:23:06.205Z,1001.4
2018-12-04T08:24:08.323Z,1001.5
2018-12-04T08:25:10.444Z,1001.5
2018-12-04T08:26:12.549Z,1001.5
2018-12-04T08:27:14.714Z,1001.5
2018-12-04T08:28:17.223Z,1001.6
2018-12-04T08:29:19.345Z,1001.6
2018-12-04T08:30:21.467Z,1001.6
2018-12-04T08:31:23.598Z,1001.7
2018-12-04T08:32:25.705Z,1001.6
2018-12-04T08:33:27.824Z,1001.6
2018-12-04T08:34:29.966Z,1001.6
2018-12-04T08:35:32.357Z,1001.7
2018-12-04T08:36:34.489Z,1001.7
2018-12-04T08:37:36.610Z,1001.7
2018-12-04T08:38:38.738Z,1001.8
2018-12-04T08:39:40.855Z,1001.8
2018-12-04T08:40:43.005Z,1001.8
2018-12-04T08:41:45.137Z,1001.8
2018-12-04T08:42:47.542Z,1001.8
2018-12-04T08:43:49.966Z,1001.9
2018-12-04T08:44:52.092Z,1001.9
2018-12-04T08:45:54.214Z,1002
2018-12-04T08:46:56.343Z,1001.9
2018-12-04T08:47:58.464Z,1002
2018-12-04T08:49:00.573Z,1002
2018-12-04T08:50:02.700Z,1002
2018-12-04T08:51:05.120Z,1002.1
2018-12-04T08:52:07.561Z,1002
2018-12-04T08:53:09.695Z,1002.1
2018-12-04T08:54:11.825Z,1002.1
2018-12-04T08:55:13.938Z,1002.2
2018-12-04T08:56:16.082Z,1002.2
2018-12-04T08:57:18.869Z,1002.2
2018-12-04T08:58:20.994Z,1002.2
2018-12-04T08:59:23.125Z,1002.2
2018-12-04T09:00:25.237Z,1002.2
2018-12-04T09:01:27.750Z,1002.2
2018-12-04T09:02:29.874Z,1002.3
2018-12-04T09:03:32.012Z,1002.3
2018-12-04T09:04:34.116Z,1002.3
2018-12-04T09:05:36.650Z,1002.4
2018-12-04T09:06:38.783Z,1002.4
2018-12-04T09:07:41.290Z,1002.4
2018-12-04T09:08:43.493Z,1002.5
2018-12-04T09:09:45.743Z,1002.5
2018-12-04T09:10:47.862Z,1002.5
2018-12-04T09:11:50.162Z,1002.5
2018-12-04T09:12:52.355Z,1002.6
2018-12-04T09:13:54.465Z,1002.6
2018-12-04T09:14:56.599Z,1002.6
2018-12-04T09:15:58.731Z,1002.6
2018-12-04T09:17:00.844Z,1002.6
2018-12-04T09:18:03.027Z,1002.7
2018-12-04T09:19:05.476Z,1002.7
2018-12-04T09:20:07.842Z,1002.7
2018-12-04T09:21:10.175Z,1002.7
2018-12-04T09:22:12.513Z,1002.8
2018-12-04T09:23:14.894Z,1002.7
2018-12-04T09:24:17.691Z,1002.8
2018-12-04T09:25:20.093Z,1002.8
2018-12-04T09:26:22.674Z,1002.8
2018-12-04T09:27:25.074Z,1002.8
2018-12-04T09:28:27.419Z,1002.8
2018-12-04T09:29:30.188Z,1002.8
2018-12-04T09:30:32.910Z,1002.9
2018-12-04T09:31:35.027Z,1002.9
2018-12-04T09:32:37.158Z,1002.9
2018-12-04T09:33:39.413Z,1003
2018-12-04T09:34:41.941Z,1003
2018-12-04T09:35:44.067Z,1003
2018-12-04T09:36:46.210Z,1003
2018-12-04T09:37:48.325Z,1003
2018-12-04T09:38:50.468Z,1003
2018-12-04T09:39:52.868Z,1003
2018-12-04T09:40:54.982Z,1003
2018-12-04T09:41:57.404Z,1003
2018-12-04T09:43:04.469Z,1003
2018-12-04T09:44:07.021Z,1003.1
2018-12-04T09:45:09.138Z,1003.1
2018-12-04T09:46:11.276Z,1003.1
2018-12-04T09:47:13.390Z,1003.2
2018-12-04T09:48:15.529Z,1003.1
2018-12-04T09:49:17.996Z,1003.2
2018-12-04T09:50:20.118Z,1003.2
2018-12-04T09:51:22.252Z,1003.2
2018-12-04T09:52:24.402Z,1003.3
2018-12-04T09:53:26.567Z,1003.4
2018-12-04T09:54:29.398Z,1003.3
2018-12-04T09:55:31.539Z,1003.3
2018-12-04T09:56:33.659Z,1003.4
2018-12-04T09:57:35.798Z,1003.4
2018-12-04T09:58:37.921Z,1003.4
2018-12-04T09:59:40.342Z,1003.3
2018-12-04T10:00:42.771Z,1003.4
2018-12-04T10:02:36.586Z,1003.4
2018-12-04T10:03:38.631Z,1003.3
2018-12-04T10:04:41.241Z,1003.4
2018-12-04T10:05:43.941Z,1003.4
2018-12-04T10:06:45.996Z,1003.4
2018-12-04T10:07:48.017Z,1003.5
2018-12-04T10:08:50.113Z,1003.5
2018-12-04T10:09:52.253Z,1003.5
2018-12-04T10:10:57.874Z,1003.5
2018-12-04T10:12:00.276Z,1003.5
2018-12-04T10:13:03.428Z,1003.6
2018-12-04T10:14:05.463Z,1003.5
2018-12-04T10:15:07.491Z,1003.5
2018-12-04T10:16:09.556Z,1003.5
2018-12-04T10:17:11.877Z,1003.5
2018-12-04T10:18:13.916Z,1003.6
2018-12-04T10:19:15.952Z,1003.6
2018-12-04T10:20:18.039Z,1003.6
2018-12-04T10:21:20.096Z,1003.7
2018-12-04T10:22:22.144Z,1003.7
2018-12-04T10:23:24.185Z,1003.7
2018-12-04T10:24:26.504Z,1003.7
2018-12-04T10:25:28.549Z,1003.8
2018-12-04T10:26:30.597Z,1003.7
2018-12-04T10:27:32.911Z,1003.8
2018-12-04T10:28:34.953Z,1003.8
2018-12-04T10:29:37.005Z,1003.9
2018-12-04T10:30:39.318Z,1003.8
2018-12-04T10:31:41.379Z,1004
2018-12-04T10:32:43.422Z,1003.9
2018-12-04T10:33:45.461Z,1003.9
2018-12-04T10:34:47.509Z,1003.9
2018-12-04T10:35:49.849Z,1004
2018-12-04T10:36:52.180Z,1004
2018-12-04T10:37:54.228Z,1004.1
2018-12-04T10:38:56.271Z,1004.1
2018-12-04T10:39:58.303Z,1004.1
2018-12-04T10:41:00.365Z,1004.1
2018-12-04T10:42:02.684Z,1004.1
2018-12-04T10:43:04.726Z,1004.1
2018-12-04T10:44:07.165Z,1004
2018-12-04T10:45:09.205Z,1004.1
2018-12-04T10:46:11.250Z,1004.2
2018-12-04T10:47:13.571Z,1004.2
2018-12-04T10:48:15.599Z,1004.2
2018-12-04T10:49:17.647Z,1004.2
2018-12-04T10:50:19.676Z,1004.2
2018-12-04T10:51:21.726Z,1004.3
2018-12-04T10:52:24.057Z,1004.3
2018-12-04T10:53:26.107Z,1004.2
2018-12-04T10:54:28.136Z,1004.3
2018-12-04T10:55:30.458Z,1004.4
2018-12-04T10:56:32.492Z,1004.3
2018-12-04T10:57:34.513Z,1004.2
2018-12-04T10:58:36.563Z,1004.3
2018-12-04T10:59:38.639Z,1004.2
2018-12-04T11:00:40.980Z,1004.3
2018-12-04T11:01:43.302Z,1004.3
2018-12-04T11:02:45.338Z,1004.2
2018-12-04T11:03:47.377Z,1004.4
2018-12-04T11:04:49.830Z,1004.3
2018-12-04T11:05:51.879Z,1004.5
2018-12-04T11:06:53.910Z,1004.5
2018-12-04T11:07:55.948Z,1004.5
2018-12-04T11:08:57.983Z,1004.5
2018-12-04T11:10:00.009Z,1004.5
2018-12-04T11:11:02.047Z,1004.6
2018-12-04T11:12:04.083Z,1004.4
2018-12-04T11:13:06.493Z,1004.6
2018-12-04T11:14:08.543Z,1004.6
2018-12-04T11:15:10.581Z,1004.6
2018-12-04T11:16:13.001Z,1004.5
2018-12-04T11:17:15.040Z,1004.6
2018-12-04T11:18:17.081Z,1004.7
2018-12-04T11:19:19.112Z,1004.6
2018-12-04T11:20:21.152Z,1004.6
2018-12-04T11:21:23.199Z,1004.8
2018-12-04T11:22:25.226Z,1004.6
2018-12-04T11:23:27.271Z,1004.7
2018-12-04T11:24:29.309Z,1004.6
2018-12-04T11:25:31.353Z,1004.7
2018-12-04T11:26:33.379Z,1004.8
2018-12-04T11:27:35.706Z,1004.8
2018-12-04T11:28:37.758Z,1004.8
2018-12-04T11:29:39.794Z,1004.8
2018-12-04T11:30:41.850Z,1004.9
2018-12-04T11:31:44.273Z,1004.7
2018-12-04T11:32:46.312Z,1004.9
2018-12-04T11:33:48.351Z,1004.8
2018-12-04T11:34:50.383Z,1004.9
2018-12-04T11:35:52.414Z,1004.9
2018-12-04T11:36:54.457Z,1004.9
2018-12-04T11:37:56.481Z,1004.9
2018-12-04T11:38:58.801Z,1004.9
2018-12-04T11:40:00.849Z,1004.9
2018-12-04T11:41:02.895Z,1004.9
2018-12-04T11:42:04.939Z,1005
2018-12-04T11:43:06.988Z,1005
2018-12-04T11:44:09.053Z,1005.1
2018-12-04T11:45:11.084Z,1005.1
2018-12-04T11:46:13.137Z,1005.1
2018-12-04T11:47:15.456Z,1005.1
2018-12-04T11:48:17.502Z,1005.2
2018-12-04T11:49:19.542Z,1005.2
2018-12-04T11:50:21.593Z,1005.3
2018-12-04T11:51:23.624Z,1005.3
2018-12-04T11:52:25.675Z,1005.4
2018-12-04T11:53:27.735Z,1005.4
2018-12-04T11:54:29.919Z,1005.4
2018-12-04T11:55:33.003Z,1005.5
2018-12-04T11:56:46.604Z,1005.5
2018-12-04T11:57:48.698Z,1005.5
2018-12-04T11:58:51.227Z,1005.4
2018-12-04T11:59:53.283Z,1005.6
2018-12-04T12:00:55.708Z,1005.5
2018-12-04T12:01:58.024Z,1005.5
2018-12-04T12:03:00.055Z,1005.5
2018-12-04T12:04:02.115Z,1005.5
2018-12-04T12:05:04.157Z,1005.6
2018-12-04T12:06:06.191Z,1005.5
2018-12-04T12:07:08.237Z,1005.6
2018-12-04T12:08:10.273Z,1005.6
2018-12-04T12:09:12.301Z,1005.6
2018-12-04T12:10:14.353Z,1005.6
2018-12-04T12:11:16.674Z,1005.6
2018-12-04T12:12:18.720Z,1005.7
2018-12-04T12:13:20.765Z,1005.6
2018-12-04T12:14:22.809Z,1005.7
2018-12-04T12:15:24.837Z,1005.7
2018-12-04T12:16:26.889Z,1005.8
2018-12-04T12:17:28.927Z,1005.7
2018-12-04T12:18:30.965Z,1005.8
2018-12-04T12:19:33.297Z,1005.8
2018-12-04T12:20:35.320Z,1005.9
2018-12-04T12:21:37.750Z,1006
2018-12-04T12:22:40.088Z,1005.9
2018-12-04T12:23:42.529Z,1006
2018-12-04T12:24:44.558Z,1006
2018-12-04T12:25:46.605Z,1006
2018-12-04T12:26:49.028Z,1006
2018-12-04T12:27:51.437Z,1006
2018-12-04T12:28:54.150Z,1006.1
2018-12-04T12:29:56.182Z,1006
2018-12-04T12:30:58.624Z,1006
2018-12-04T12:32:00.658Z,1006
2018-12-04T12:33:02.706Z,1006
2018-12-04T12:34:05.045Z,1006
2018-12-04T12:35:07.081Z,1006.1
2018-12-04T12:36:09.410Z,1006.1
2018-12-04T12:37:11.445Z,1006.1
2018-12-04T12:38:13.488Z,1006
2018-12-04T12:39:15.525Z,1006.1
2018-12-04T12:40:17.564Z,1006.1
2018-12-04T12:41:19.601Z,1006.1
2018-12-04T12:42:21.634Z,1006.2
2018-12-04T12:43:23.677Z,1006.2
2018-12-04T12:44:25.708Z,1006.2
2018-12-04T12:45:28.132Z,1006.3
2018-12-04T12:46:30.182Z,1006.4
2018-12-04T12:47:32.211Z,1006.3
2018-12-04T12:48:34.238Z,1006.3
2018-12-04T12:49:36.277Z,1006.3
2018-12-04T12:50:38.594Z,1006.3
2018-12-04T12:51:40.625Z,1006.3
2018-12-04T12:52:42.672Z,1006.4
2018-12-04T12:53:46.074Z,1006.4
2018-12-04T12:54:48.117Z,1006.4
2018-12-04T12:55:50.158Z,1006.4
2018-12-04T12:56:52.195Z,1006.5
2018-12-04T12:57:54.221Z,1006.5
2018-12-04T12:58:56.258Z,1006.4
2018-12-04T12:59:58.671Z,1006.5
2018-12-04T13:01:00.699Z,1006.5
2018-12-04T13:02:02.750Z,1006.5
2018-12-04T13:03:05.057Z,1006.5
2018-12-04T13:04:07.479Z,1006.6
2018-12-04T13:05:09.505Z,1006.6
2018-12-04T13:06:11.560Z,1006.6
2018-12-04T13:07:13.898Z,1006.6
2018-12-04T13:08:16.337Z,1006.6
2018-12-04T13:09:18.686Z,1006.6
2018-12-04T13:10:20.715Z,1006.8
2018-12-04T13:11:22.793Z,1006.6
2018-12-04T13:12:24.894Z,1006.7
2018-12-04T13:13:27.599Z,1006.6
2018-12-04T13:14:29.649Z,1006.7
2018-12-04T13:15:31.686Z,1006.7